sensor_id;sensor_type;location;lat;lon;timestamp;temperature;humidity
10417;DHT22;62605;49.432;8.680;2022-11-25T00:02:06;7.80;1.00
10417;DHT22;62605;49.432;8.680;2022-11-25T00:04:33;7.90;1.00
10417;DHT22;62605;49.432;8.680;2022-11-25T00:07:01;7.80;99.90
10417;DHT22;62605;49.432;8.680;2022-11-25T00:09:28;7.70;99.90
10417;DHT22;62605;49.432;8.680;2022-11-25T00:11:55;7.80;99.90
10417;DHT22;62605;49.432;8.680;2022-11-25T00:14:22;7.90;1.00
10417;DHT22;62605;49.432;8.680;2022-11-25T00:16:50;7.90;99.90
10417;DHT22;62605;49.432;8.680;2022-11-25T00:19:17;8.00;1.00
10417;DHT22;62605;49.432;8.680;2022-11-25T00:21:44;7.90;1.00
10417;DHT22;62605;49.432;8.680;2022-11-25T00:24:14;8.00;33.80
10417;DHT22;62605;49.432;8.680;2022-11-25T00:26:41;8.00;1.00
10417;DHT22;62605;49.432;8.680;2022-11-25T00:29:10;8.00;99.90
10417;DHT22;62605;49.432;8.680;2022-11-25T00:31:39;8.00;1.00
10417;DHT22;62605;49.432;8.680;2022-11-25T00:34:11;7.90;1.00
10417;DHT22;62605;49.432;8.680;2022-11-25T00:36:38;7.90;1.00
10417;DHT22;62605;49.432;8.680;2022-11-25T00:39:06;8.00;99.90
10417;DHT22;62605;49.432;8.680;2022-11-25T00:41:35;8.00;29.00
10417;DHT22;62605;49.432;8.680;2022-11-25T00:44:20;7.80;1.00
10417;DHT22;62605;49.432;8.680;2022-11-25T00:47:08;7.90;99.90
10417;DHT22;62605;49.432;8.680;2022-11-25T00:49:39;7.60;14.40
10417;DHT22;62605;49.432;8.680;2022-11-25T00:52:08;7.60;99.90
10417;DHT22;62605;49.432;8.680;2022-11-25T00:54:35;7.40;99.90
10417;DHT22;62605;49.432;8.680;2022-11-25T00:57:02;7.60;99.90
10417;DHT22;62605;49.432;8.680;2022-11-25T00:59:29;7.40;99.90
10417;DHT22;62605;49.432;8.680;2022-11-25T01:02:00;7.40;1.00
10417;DHT22;62605;49.432;8.680;2022-11-25T01:04:29;7.20;99.90
10417;DHT22;62605;49.432;8.680;2022-11-25T01:06:57;7.20;28.30
10417;DHT22;62605;49.432;8.680;2022-11-25T01:09:24;7.30;1.00
10417;DHT22;62605;49.432;8.680;2022-11-25T01:11:52;7.50;1.00
10417;DHT22;62605;49.432;8.680;2022-11-25T01:14:20;7.70;1.00
10417;DHT22;62605;49.432;8.680;2022-11-25T01:16:47;7.70;99.90
10417;DHT22;62605;49.432;8.680;2022-11-25T01:19:15;7.70;1.00
10417;DHT22;62605;49.432;8.680;2022-11-25T01:21:42;7.60;90.60
10417;DHT22;62605;49.432;8.680;2022-11-25T01:24:11;8.00;99.90
10417;DHT22;62605;49.432;8.680;2022-11-25T01:26:39;7.80;1.00
10417;DHT22;62605;49.432;8.680;2022-11-25T01:29:11;7.90;99.90
10417;DHT22;62605;49.432;8.680;2022-11-25T01:31:38;8.00;99.90
10417;DHT22;62605;49.432;8.680;2022-11-25T01:34:09;7.80;99.90
10417;DHT22;62605;49.432;8.680;2022-11-25T01:36:38;7.90;99.90
10417;DHT22;62605;49.432;8.680;2022-11-25T01:39:05;7.90;1.00
10417;DHT22;62605;49.432;8.680;2022-11-25T01:41:34;8.10;1.00
10417;DHT22;62605;49.432;8.680;2022-11-25T01:44:10;8.30;1.00
10417;DHT22;62605;49.432;8.680;2022-11-25T01:46:50;8.20;90.10
10417;DHT22;62605;49.432;8.680;2022-11-25T01:49:23;8.30;1.00
10417;DHT22;62605;49.432;8.680;2022-11-25T01:51:54;8.10;45.30
10417;DHT22;62605;49.432;8.680;2022-11-25T01:54:26;8.00;1.00
10417;DHT22;62605;49.432;8.680;2022-11-25T01:56:58;8.10;1.00
10417;DHT22;62605;49.432;8.680;2022-11-25T01:59:27;8.30;1.00
10417;DHT22;62605;49.432;8.680;2022-11-25T02:01:55;8.60;1.00
10417;DHT22;62605;49.432;8.680;2022-11-25T02:04:27;8.40;1.00
10417;DHT22;62605;49.432;8.680;2022-11-25T02:07:01;8.30;1.00
10417;DHT22;62605;49.432;8.680;2022-11-25T02:09:29;8.00;1.00
10417;DHT22;62605;49.432;8.680;2022-11-25T02:11:59;8.20;1.00
10417;DHT22;62605;49.432;8.680;2022-11-25T02:14:33;8.40;1.00
10417;DHT22;62605;49.432;8.680;2022-11-25T02:17:00;8.20;1.00
10417;DHT22;62605;49.432;8.680;2022-11-25T02:19:35;8.40;1.00
10417;DHT22;62605;49.432;8.680;2022-11-25T02:22:10;8.20;1.00
10417;DHT22;62605;49.432;8.680;2022-11-25T02:24:45;8.10;1.00
10417;DHT22;62605;49.432;8.680;2022-11-25T02:27:13;8.30;99.90
10417;DHT22;62605;49.432;8.680;2022-11-25T02:29:42;8.30;1.00
10417;DHT22;62605;49.432;8.680;2022-11-25T02:32:09;8.40;99.90
10417;DHT22;62605;49.432;8.680;2022-11-25T02:34:45;8.20;99.90
10417;DHT22;62605;49.432;8.680;2022-11-25T02:37:13;8.30;99.90
10417;DHT22;62605;49.432;8.680;2022-11-25T02:39:41;8.30;99.90
10417;DHT22;62605;49.432;8.680;2022-11-25T02:42:09;8.20;99.90
10417;DHT22;62605;49.432;8.680;2022-11-25T02:44:46;8.10;99.90
10417;DHT22;62605;49.432;8.680;2022-11-25T02:47:20;8.20;99.90
10417;DHT22;62605;49.432;8.680;2022-11-25T02:49:47;8.20;99.90
10417;DHT22;62605;49.432;8.680;2022-11-25T02:52:14;7.80;99.90
10417;DHT22;62605;49.432;8.680;2022-11-25T02:54:41;7.80;99.90
10417;DHT22;62605;49.432;8.680;2022-11-25T02:57:08;8.00;99.90
10417;DHT22;62605;49.432;8.680;2022-11-25T02:59:35;7.70;99.90
10417;DHT22;62605;49.432;8.680;2022-11-25T03:02:04;7.60;99.90
10417;DHT22;62605;49.432;8.680;2022-11-25T03:04:31;7.80;99.90
10417;DHT22;62605;49.432;8.680;2022-11-25T03:06:58;7.70;99.90
10417;DHT22;62605;49.432;8.680;2022-11-25T03:09:31;7.60;99.90
10417;DHT22;62605;49.432;8.680;2022-11-25T03:11:58;7.50;99.90
10417;DHT22;62605;49.432;8.680;2022-11-25T03:14:42;7.60;99.90
10417;DHT22;62605;49.432;8.680;2022-11-25T03:17:11;7.80;99.90
10417;DHT22;62605;49.432;8.680;2022-11-25T03:19:39;7.90;99.90
10417;DHT22;62605;49.432;8.680;2022-11-25T03:22:06;7.80;99.90
10417;DHT22;62605;49.432;8.680;2022-11-25T03:24:33;7.90;99.90
10417;DHT22;62605;49.432;8.680;2022-11-25T03:27:00;8.00;99.90
10417;DHT22;62605;49.432;8.680;2022-11-25T03:29:27;7.90;99.90
10417;DHT22;62605;49.432;8.680;2022-11-25T03:31:54;8.10;99.90
10417;DHT22;62605;49.432;8.680;2022-11-25T03:34:22;8.10;99.90
10417;DHT22;62605;49.432;8.680;2022-11-25T03:36:49;8.20;99.90
10417;DHT22;62605;49.432;8.680;2022-11-25T03:39:16;8.60;99.90
10417;DHT22;62605;49.432;8.680;2022-11-25T03:41:43;8.30;99.90
10417;DHT22;62605;49.432;8.680;2022-11-25T03:44:10;8.40;99.90
10417;DHT22;62605;49.432;8.680;2022-11-25T03:46:38;8.60;99.90
10417;DHT22;62605;49.432;8.680;2022-11-25T03:49:05;8.40;99.90
10417;DHT22;62605;49.432;8.680;2022-11-25T03:51:34;8.20;99.90
10417;DHT22;62605;49.432;8.680;2022-11-25T03:54:01;8.30;99.90
10417;DHT22;62605;49.432;8.680;2022-11-25T03:56:28;8.20;99.90
10417;DHT22;62605;49.432;8.680;2022-11-25T03:58:55;8.20;99.90
10417;DHT22;62605;49.432;8.680;2022-11-25T04:01:22;8.20;99.90
10417;DHT22;62605;49.432;8.680;2022-11-25T04:03:49;8.50;99.90
10417;DHT22;62605;49.432;8.680;2022-11-25T04:06:16;8.30;99.90
10417;DHT22;62605;49.432;8.680;2022-11-25T04:08:46;8.20;99.90
10417;DHT22;62605;49.432;8.680;2022-11-25T04:11:13;8.20;99.90
10417;DHT22;62605;49.432;8.680;2022-11-25T04:13:40;8.20;99.90
10417;DHT22;62605;49.432;8.680;2022-11-25T04:16:12;8.20;99.90
10417;DHT22;62605;49.432;8.680;2022-11-25T04:18:40;8.30;99.90
10417;DHT22;62605;49.432;8.680;2022-11-25T04:21:07;8.60;99.90
10417;DHT22;62605;49.432;8.680;2022-11-25T04:23:34;8.60;96.10
10417;DHT22;62605;49.432;8.680;2022-11-25T04:26:03;8.60;96.10
10417;DHT22;62605;49.432;8.680;2022-11-25T04:28:30;8.50;72.40
10417;DHT22;62605;49.432;8.680;2022-11-25T04:30:57;8.50;84.20
10417;DHT22;62605;49.432;8.680;2022-11-25T04:33:24;8.30;57.10
10417;DHT22;62605;49.432;8.680;2022-11-25T04:35:51;8.50;75.30
10417;DHT22;62605;49.432;8.680;2022-11-25T04:38:18;8.50;81.70
10417;DHT22;62605;49.432;8.680;2022-11-25T04:40:45;8.60;56.60
10417;DHT22;62605;49.432;8.680;2022-11-25T04:43:14;8.70;37.40
10417;DHT22;62605;49.432;8.680;2022-11-25T04:45:42;8.80;22.60
10417;DHT22;62605;49.432;8.680;2022-11-25T04:48:09;8.70;16.00
10417;DHT22;62605;49.432;8.680;2022-11-25T04:50:36;8.50;1.00
10417;DHT22;62605;49.432;8.680;2022-11-25T04:53:03;8.80;20.30
10417;DHT22;62605;49.432;8.680;2022-11-25T04:55:30;9.00;1.00
10417;DHT22;62605;49.432;8.680;2022-11-25T04:57:57;8.90;1.00
10417;DHT22;62605;49.432;8.680;2022-11-25T05:00:26;8.90;1.00
10417;DHT22;62605;49.432;8.680;2022-11-25T05:02:52;9.50;1.00
10417;DHT22;62605;49.432;8.680;2022-11-25T05:05:19;9.00;1.00
10417;DHT22;62605;49.432;8.680;2022-11-25T05:07:47;9.10;1.00
10417;DHT22;62605;49.432;8.680;2022-11-25T05:10:15;8.80;1.00
10417;DHT22;62605;49.432;8.680;2022-11-25T05:12:46;8.80;1.00
10417;DHT22;62605;49.432;8.680;2022-11-25T05:15:14;8.50;1.00
10417;DHT22;62605;49.432;8.680;2022-11-25T05:17:42;8.30;1.00
10417;DHT22;62605;49.432;8.680;2022-11-25T05:20:10;8.20;1.00
10417;DHT22;62605;49.432;8.680;2022-11-25T05:22:38;8.30;1.00
10417;DHT22;62605;49.432;8.680;2022-11-25T05:25:05;8.40;1.00
10417;DHT22;62605;49.432;8.680;2022-11-25T05:27:34;8.20;1.00
10417;DHT22;62605;49.432;8.680;2022-11-25T05:30:01;8.50;1.00
10417;DHT22;62605;49.432;8.680;2022-11-25T05:32:28;8.30;1.00
10417;DHT22;62605;49.432;8.680;2022-11-25T05:34:56;8.30;1.00
10417;DHT22;62605;49.432;8.680;2022-11-25T05:37:24;8.10;1.00
10417;DHT22;62605;49.432;8.680;2022-11-25T05:39:51;8.20;1.00
10417;DHT22;62605;49.432;8.680;2022-11-25T05:42:18;8.10;1.00
10417;DHT22;62605;49.432;8.680;2022-11-25T05:44:45;8.20;1.00
10417;DHT22;62605;49.432;8.680;2022-11-25T05:47:12;8.10;1.00
10417;DHT22;62605;49.432;8.680;2022-11-25T05:49:39;8.60;1.00
10417;DHT22;62605;49.432;8.680;2022-11-25T05:52:07;8.40;1.00
10417;DHT22;62605;49.432;8.680;2022-11-25T05:54:34;8.40;1.00
10417;DHT22;62605;49.432;8.680;2022-11-25T05:57:01;8.40;1.00
10417;DHT22;62605;49.432;8.680;2022-11-25T05:59:28;8.30;1.00
10417;DHT22;62605;49.432;8.680;2022-11-25T06:01:56;8.00;1.00
10417;DHT22;62605;49.432;8.680;2022-11-25T06:04:23;8.20;1.00
10417;DHT22;62605;49.432;8.680;2022-11-25T06:06:50;7.90;1.00
10417;DHT22;62605;49.432;8.680;2022-11-25T06:09:19;7.70;1.00
10417;DHT22;62605;49.432;8.680;2022-11-25T06:11:47;7.60;14.80
10417;DHT22;62605;49.432;8.680;2022-11-25T06:14:15;7.60;44.50
10417;DHT22;62605;49.432;8.680;2022-11-25T06:16:42;7.50;46.50
10417;DHT22;62605;49.432;8.680;2022-11-25T06:19:10;7.70;48.60
10417;DHT22;62605;49.432;8.680;2022-11-25T06:21:37;7.80;33.80
10417;DHT22;62605;49.432;8.680;2022-11-25T06:24:04;7.80;35.60
10417;DHT22;62605;49.432;8.680;2022-11-25T06:26:33;7.60;54.20
10417;DHT22;62605;49.432;8.680;2022-11-25T06:29:00;7.40;70.80
10417;DHT22;62605;49.432;8.680;2022-11-25T06:31:27;7.20;99.90
10417;DHT22;62605;49.432;8.680;2022-11-25T06:33:54;7.10;99.90
10417;DHT22;62605;49.432;8.680;2022-11-25T06:36:22;7.00;99.90
10417;DHT22;62605;49.432;8.680;2022-11-25T06:38:50;6.90;1.00
10417;DHT22;62605;49.432;8.680;2022-11-25T06:41:18;6.90;1.00
10417;DHT22;62605;49.432;8.680;2022-11-25T06:43:47;6.90;1.00
10417;DHT22;62605;49.432;8.680;2022-11-25T06:46:16;6.80;1.00
10417;DHT22;62605;49.432;8.680;2022-11-25T06:48:44;6.80;82.60
10417;DHT22;62605;49.432;8.680;2022-11-25T06:51:12;6.80;99.90
10417;DHT22;62605;49.432;8.680;2022-11-25T06:53:40;6.70;99.90
10417;DHT22;62605;49.432;8.680;2022-11-25T06:56:09;6.70;1.00
10417;DHT22;62605;49.432;8.680;2022-11-25T06:58:38;6.60;99.90
10417;DHT22;62605;49.432;8.680;2022-11-25T07:01:11;6.70;1.00
10417;DHT22;62605;49.432;8.680;2022-11-25T07:03:39;6.80;1.00
10417;DHT22;62605;49.432;8.680;2022-11-25T07:06:07;6.90;1.00
10417;DHT22;62605;49.432;8.680;2022-11-25T07:08:34;6.90;1.00
10417;DHT22;62605;49.432;8.680;2022-11-25T07:11:03;6.90;1.00
10417;DHT22;62605;49.432;8.680;2022-11-25T07:13:31;7.00;1.00
10417;DHT22;62605;49.432;8.680;2022-11-25T07:16:00;6.90;99.90
10417;DHT22;62605;49.432;8.680;2022-11-25T07:18:30;7.10;1.00
10417;DHT22;62605;49.432;8.680;2022-11-25T07:21:05;7.00;99.90
10417;DHT22;62605;49.432;8.680;2022-11-25T07:23:33;7.30;1.00
10417;DHT22;62605;49.432;8.680;2022-11-25T07:26:03;7.40;1.00
10417;DHT22;62605;49.432;8.680;2022-11-25T07:28:31;7.50;1.00
10417;DHT22;62605;49.432;8.680;2022-11-25T07:31:04;7.40;88.40
10417;DHT22;62605;49.432;8.680;2022-11-25T07:33:33;7.60;1.00
10417;DHT22;62605;49.432;8.680;2022-11-25T07:36:02;7.50;99.90
10417;DHT22;62605;49.432;8.680;2022-11-25T07:38:29;7.60;1.00
10417;DHT22;62605;49.432;8.680;2022-11-25T07:41:03;7.60;1.00
10417;DHT22;62605;49.432;8.680;2022-11-25T07:43:31;7.80;99.90
10417;DHT22;62605;49.432;8.680;2022-11-25T07:46:08;8.00;17.60
10417;DHT22;62605;49.432;8.680;2022-11-25T07:48:36;8.10;99.90
10417;DHT22;62605;49.432;8.680;2022-11-25T07:51:04;7.90;99.90
10417;DHT22;62605;49.432;8.680;2022-11-25T07:53:31;7.90;61.50
10417;DHT22;62605;49.432;8.680;2022-11-25T07:56:00;7.80;99.90
10417;DHT22;62605;49.432;8.680;2022-11-25T07:58:28;7.90;1.00
10417;DHT22;62605;49.432;8.680;2022-11-25T08:00:55;8.30;99.90
10417;DHT22;62605;49.432;8.680;2022-11-25T08:03:22;8.40;1.00
10417;DHT22;62605;49.432;8.680;2022-11-25T08:05:51;8.40;99.90
10417;DHT22;62605;49.432;8.680;2022-11-25T08:08:18;8.20;1.00
10417;DHT22;62605;49.432;8.680;2022-11-25T08:10:45;8.60;58.30
10417;DHT22;62605;49.432;8.680;2022-11-25T08:13:12;8.90;1.00
10417;DHT22;62605;49.432;8.680;2022-11-25T08:15:39;8.90;1.00
10417;DHT22;62605;49.432;8.680;2022-11-25T08:18:06;8.70;1.00
10417;DHT22;62605;49.432;8.680;2022-11-25T08:20:33;8.70;1.00
10417;DHT22;62605;49.432;8.680;2022-11-25T08:23:02;8.70;1.00
10417;DHT22;62605;49.432;8.680;2022-11-25T08:25:30;8.60;1.00
10417;DHT22;62605;49.432;8.680;2022-11-25T08:27:58;8.90;1.00
10417;DHT22;62605;49.432;8.680;2022-11-25T08:30:26;8.80;1.00
10417;DHT22;62605;49.432;8.680;2022-11-25T08:32:55;8.80;99.90
10417;DHT22;62605;49.432;8.680;2022-11-25T08:35:23;9.00;99.90
10417;DHT22;62605;49.432;8.680;2022-11-25T08:37:50;8.90;99.90
10417;DHT22;62605;49.432;8.680;2022-11-25T08:40:19;8.80;99.90
10417;DHT22;62605;49.432;8.680;2022-11-25T08:42:46;8.80;99.90
10417;DHT22;62605;49.432;8.680;2022-11-25T08:45:13;8.80;99.90
10417;DHT22;62605;49.432;8.680;2022-11-25T08:47:40;8.70;99.90
10417;DHT22;62605;49.432;8.680;2022-11-25T08:50:09;8.80;99.90
10417;DHT22;62605;49.432;8.680;2022-11-25T08:52:36;8.90;99.90
10417;DHT22;62605;49.432;8.680;2022-11-25T08:55:04;8.90;99.90
10417;DHT22;62605;49.432;8.680;2022-11-25T08:57:32;8.70;99.90
10417;DHT22;62605;49.432;8.680;2022-11-25T08:59:59;8.60;99.90
10417;DHT22;62605;49.432;8.680;2022-11-25T09:02:26;8.70;99.90
10417;DHT22;62605;49.432;8.680;2022-11-25T09:04:56;8.60;99.90
10417;DHT22;62605;49.432;8.680;2022-11-25T09:07:23;8.60;99.90
10417;DHT22;62605;49.432;8.680;2022-11-25T09:09:50;8.70;99.90
10417;DHT22;62605;49.432;8.680;2022-11-25T09:12:17;8.70;99.90
10417;DHT22;62605;49.432;8.680;2022-11-25T09:14:46;8.60;99.90
10417;DHT22;62605;49.432;8.680;2022-11-25T09:17:14;8.80;99.90
10417;DHT22;62605;49.432;8.680;2022-11-25T09:19:41;8.70;99.90
10417;DHT22;62605;49.432;8.680;2022-11-25T09:22:08;8.70;99.90
10417;DHT22;62605;49.432;8.680;2022-11-25T09:24:38;8.60;99.90
10417;DHT22;62605;49.432;8.680;2022-11-25T09:27:19;8.70;99.90
10417;DHT22;62605;49.432;8.680;2022-11-25T09:29:48;9.10;99.90
10417;DHT22;62605;49.432;8.680;2022-11-25T09:32:15;8.70;99.90
10417;DHT22;62605;49.432;8.680;2022-11-25T09:34:45;9.00;99.90
10417;DHT22;62605;49.432;8.680;2022-11-25T09:37:13;8.80;99.90
10417;DHT22;62605;49.432;8.680;2022-11-25T09:39:41;8.80;99.90
10417;DHT22;62605;49.432;8.680;2022-11-25T09:42:20;8.80;99.90
10417;DHT22;62605;49.432;8.680;2022-11-25T09:45:16;8.70;99.90
10417;DHT22;62605;49.432;8.680;2022-11-25T09:48:12;8.60;99.90
10417;DHT22;62605;49.432;8.680;2022-11-25T09:50:52;8.50;99.90
10417;DHT22;62605;49.432;8.680;2022-11-25T09:53:34;8.70;99.90
10417;DHT22;62605;49.432;8.680;2022-11-25T09:56:13;8.50;99.90
10417;DHT22;62605;49.432;8.680;2022-11-25T09:58:49;8.70;99.90
10417;DHT22;62605;49.432;8.680;2022-11-25T10:01:22;8.60;99.90
10417;DHT22;62605;49.432;8.680;2022-11-25T10:03:54;8.60;99.90
10417;DHT22;62605;49.432;8.680;2022-11-25T10:06:24;8.60;99.90
10417;DHT22;62605;49.432;8.680;2022-11-25T10:08:55;9.10;99.90
10417;DHT22;62605;49.432;8.680;2022-11-25T10:11:30;8.90;99.90
10417;DHT22;62605;49.432;8.680;2022-11-25T10:14:02;8.80;99.90
10417;DHT22;62605;49.432;8.680;2022-11-25T10:16:40;8.70;99.90
10417;DHT22;62605;49.432;8.680;2022-11-25T10:19:20;8.60;99.90
10417;DHT22;62605;49.432;8.680;2022-11-25T10:21:51;8.60;99.90
10417;DHT22;62605;49.432;8.680;2022-11-25T10:24:19;8.90;99.90
10417;DHT22;62605;49.432;8.680;2022-11-25T10:26:52;8.70;99.90
10417;DHT22;62605;49.432;8.680;2022-11-25T10:29:24;8.70;99.90
10417;DHT22;62605;49.432;8.680;2022-11-25T10:32:00;8.50;99.90
10417;DHT22;62605;49.432;8.680;2022-11-25T10:34:35;8.40;99.90
10417;DHT22;62605;49.432;8.680;2022-11-25T10:37:11;8.60;99.90
10417;DHT22;62605;49.432;8.680;2022-11-25T10:39:39;8.80;99.90
10417;DHT22;62605;49.432;8.680;2022-11-25T10:42:13;8.60;99.90
10417;DHT22;62605;49.432;8.680;2022-11-25T10:44:41;8.40;99.90
10417;DHT22;62605;49.432;8.680;2022-11-25T10:47:25;8.70;99.90
10417;DHT22;62605;49.432;8.680;2022-11-25T10:50:06;8.50;99.90
10417;DHT22;62605;49.432;8.680;2022-11-25T10:52:38;8.90;99.90
10417;DHT22;62605;49.432;8.680;2022-11-25T10:55:12;8.60;99.90
10417;DHT22;62605;49.432;8.680;2022-11-25T10:57:39;8.60;99.90
10417;DHT22;62605;49.432;8.680;2022-11-25T11:00:23;8.70;99.90
10417;DHT22;62605;49.432;8.680;2022-11-25T11:02:51;9.00;99.90
10417;DHT22;62605;49.432;8.680;2022-11-25T11:05:23;9.00;99.90
10417;DHT22;62605;49.432;8.680;2022-11-25T11:08:12;9.00;99.90
10417;DHT22;62605;49.432;8.680;2022-11-25T11:10:41;9.20;99.90
10417;DHT22;62605;49.432;8.680;2022-11-25T11:13:22;9.40;99.90
10417;DHT22;62605;49.432;8.680;2022-11-25T11:15:51;9.50;99.90
10417;DHT22;62605;49.432;8.680;2022-11-25T11:18:24;9.60;99.90
10417;DHT22;62605;49.432;8.680;2022-11-25T11:20:53;9.90;99.90
10417;DHT22;62605;49.432;8.680;2022-11-25T11:23:20;9.40;99.90
10417;DHT22;62605;49.432;8.680;2022-11-25T11:25:58;9.30;99.90
10417;DHT22;62605;49.432;8.680;2022-11-25T11:28:27;9.10;99.90
10417;DHT22;62605;49.432;8.680;2022-11-25T11:31:00;8.90;99.90
10417;DHT22;62605;49.432;8.680;2022-11-25T11:33:34;9.20;99.90
10417;DHT22;62605;49.432;8.680;2022-11-25T11:36:14;9.00;99.90
10417;DHT22;62605;49.432;8.680;2022-11-25T11:38:52;9.10;99.90
10417;DHT22;62605;49.432;8.680;2022-11-25T11:41:31;9.00;99.90
10417;DHT22;62605;49.432;8.680;2022-11-25T11:44:19;9.10;99.90
10417;DHT22;62605;49.432;8.680;2022-11-25T11:47:12;9.20;99.90
10417;DHT22;62605;49.432;8.680;2022-11-25T11:50:02;9.20;99.90
10417;DHT22;62605;49.432;8.680;2022-11-25T11:52:42;9.10;99.90
10417;DHT22;62605;49.432;8.680;2022-11-25T11:55:22;9.60;99.90
10417;DHT22;62605;49.432;8.680;2022-11-25T11:57:59;9.40;99.90
10417;DHT22;62605;49.432;8.680;2022-11-25T12:00:31;9.30;99.90
10417;DHT22;62605;49.432;8.680;2022-11-25T12:03:10;9.20;99.90
10417;DHT22;62605;49.432;8.680;2022-11-25T12:05:41;9.20;99.90
10417;DHT22;62605;49.432;8.680;2022-11-25T12:08:12;9.30;99.90
10417;DHT22;62605;49.432;8.680;2022-11-25T12:10:43;9.50;99.90
10417;DHT22;62605;49.432;8.680;2022-11-25T12:13:18;9.80;99.90
10417;DHT22;62605;49.432;8.680;2022-11-25T12:15:51;9.80;99.90
10417;DHT22;62605;49.432;8.680;2022-11-25T12:18:34;9.80;99.90
10417;DHT22;62605;49.432;8.680;2022-11-25T12:21:09;9.60;99.90
10417;DHT22;62605;49.432;8.680;2022-11-25T12:23:46;9.60;99.90
10417;DHT22;62605;49.432;8.680;2022-11-25T12:26:20;9.90;99.90
10417;DHT22;62605;49.432;8.680;2022-11-25T12:28:54;9.80;99.90
10417;DHT22;62605;49.432;8.680;2022-11-25T12:31:25;9.80;99.90
10417;DHT22;62605;49.432;8.680;2022-11-25T12:34:01;9.60;99.90
10417;DHT22;62605;49.432;8.680;2022-11-25T12:36:33;9.60;99.90
10417;DHT22;62605;49.432;8.680;2022-11-25T12:39:04;9.70;99.90
10417;DHT22;62605;49.432;8.680;2022-11-25T12:41:39;9.70;99.90
10417;DHT22;62605;49.432;8.680;2022-11-25T12:44:13;9.70;99.90
10417;DHT22;62605;49.432;8.680;2022-11-25T12:46:46;9.50;99.90
10417;DHT22;62605;49.432;8.680;2022-11-25T12:49:17;9.40;99.90
10417;DHT22;62605;49.432;8.680;2022-11-25T12:52:09;9.40;99.90
10417;DHT22;62605;49.432;8.680;2022-11-25T12:55:15;9.50;99.90
10417;DHT22;62605;49.432;8.680;2022-11-25T12:58:29;9.40;99.90
10417;DHT22;62605;49.432;8.680;2022-11-25T13:01:23;9.40;1.00
10417;DHT22;62605;49.432;8.680;2022-11-25T13:04:16;9.40;1.00
10417;DHT22;62605;49.432;8.680;2022-11-25T13:07:05;9.40;1.00
10417;DHT22;62605;49.432;8.680;2022-11-25T13:13:05;9.60;1.00
10417;DHT22;62605;49.432;8.680;2022-11-25T13:15:40;9.70;1.00
10417;DHT22;62605;49.432;8.680;2022-11-25T13:18:10;9.80;1.00
10417;DHT22;62605;49.432;8.680;2022-11-25T13:20:48;9.80;1.00
10417;DHT22;62605;49.432;8.680;2022-11-25T13:23:31;10.00;99.90
10417;DHT22;62605;49.432;8.680;2022-11-25T13:26:44;10.00;1.00
10417;DHT22;62605;49.432;8.680;2022-11-25T13:32:37;10.10;99.90
10417;DHT22;62605;49.432;8.680;2022-11-25T13:35:37;10.10;
10417;DHT22;62605;49.432;8.680;2022-11-25T13:38:35;10.20;99.90
10417;DHT22;62605;49.432;8.680;2022-11-25T13:41:31;10.10;99.90
10417;DHT22;62605;49.432;8.680;2022-11-25T13:44:25;10.30;99.90
10417;DHT22;62605;49.432;8.680;2022-11-25T13:47:38;10.10;99.90
10417;DHT22;62605;49.432;8.680;2022-11-25T13:50:43;10.20;1.00
10417;DHT22;62605;49.432;8.680;2022-11-25T13:53:21;10.50;1.00
10417;DHT22;62605;49.432;8.680;2022-11-25T13:55:50;10.60;99.90
10417;DHT22;62605;49.432;8.680;2022-11-25T13:58:21;10.70;99.90
10417;DHT22;62605;49.432;8.680;2022-11-25T14:01:22;10.70;99.90
10417;DHT22;62605;49.432;8.680;2022-11-25T14:03:57;10.60;99.90
10417;DHT22;62605;49.432;8.680;2022-11-25T14:06:48;10.70;99.90
10417;DHT22;62605;49.432;8.680;2022-11-25T14:09:30;10.60;99.90
10417;DHT22;62605;49.432;8.680;2022-11-25T14:12:25;10.60;99.90
10417;DHT22;62605;49.432;8.680;2022-11-25T14:18:16;10.70;99.90
10417;DHT22;62605;49.432;8.680;2022-11-25T14:20:54;10.60;99.90
10417;DHT22;62605;49.432;8.680;2022-11-25T14:23:41;10.50;99.90
10417;DHT22;62605;49.432;8.680;2022-11-25T14:26:24;10.80;99.90
10417;DHT22;62605;49.432;8.680;2022-11-25T14:28:57;10.60;99.90
10417;DHT22;62605;49.432;8.680;2022-11-25T14:31:35;10.40;99.90
10417;DHT22;62605;49.432;8.680;2022-11-25T14:34:11;10.70;99.90
10417;DHT22;62605;49.432;8.680;2022-11-25T14:36:49;11.00;99.90
10417;DHT22;62605;49.432;8.680;2022-11-25T14:39:24;10.80;99.90
10417;DHT22;62605;49.432;8.680;2022-11-25T14:41:58;10.90;99.90
10417;DHT22;62605;49.432;8.680;2022-11-25T14:44:33;11.00;99.90
10417;DHT22;62605;49.432;8.680;2022-11-25T14:47:04;10.70;99.90
10417;DHT22;62605;49.432;8.680;2022-11-25T14:49:51;10.70;99.90
10417;DHT22;62605;49.432;8.680;2022-11-25T14:52:22;10.60;99.90
10417;DHT22;62605;49.432;8.680;2022-11-25T14:54:52;10.60;99.90
10417;DHT22;62605;49.432;8.680;2022-11-25T14:57:22;10.50;99.90
10417;DHT22;62605;49.432;8.680;2022-11-25T14:59:50;10.80;99.90
10417;DHT22;62605;49.432;8.680;2022-11-25T15:02:24;11.00;99.90
10417;DHT22;62605;49.432;8.680;2022-11-25T15:05:00;10.90;99.90
10417;DHT22;62605;49.432;8.680;2022-11-25T15:07:30;10.80;99.90
10417;DHT22;62605;49.432;8.680;2022-11-25T15:09:57;10.70;99.90
10417;DHT22;62605;49.432;8.680;2022-11-25T15:12:29;10.90;99.90
10417;DHT22;62605;49.432;8.680;2022-11-25T15:14:57;10.90;99.90
10417;DHT22;62605;49.432;8.680;2022-11-25T15:17:28;10.90;99.90
10417;DHT22;62605;49.432;8.680;2022-11-25T15:19:58;10.70;99.90
10417;DHT22;62605;49.432;8.680;2022-11-25T15:22:27;10.90;99.90
10417;DHT22;62605;49.432;8.680;2022-11-25T15:25:06;11.00;99.90
10417;DHT22;62605;49.432;8.680;2022-11-25T15:27:33;11.10;99.90
10417;DHT22;62605;49.432;8.680;2022-11-25T15:30:00;10.70;99.90
10417;DHT22;62605;49.432;8.680;2022-11-25T15:32:30;10.40;99.90
10417;DHT22;62605;49.432;8.680;2022-11-25T15:35:00;10.20;99.90
10417;DHT22;62605;49.432;8.680;2022-11-25T15:37:27;10.00;1.00
10417;DHT22;62605;49.432;8.680;2022-11-25T15:40:32;9.80;26.10
10417;DHT22;62605;49.432;8.680;2022-11-25T15:43:03;9.90;67.60
10417;DHT22;62605;49.432;8.680;2022-11-25T15:45:36;10.10;99.90
10417;DHT22;62605;49.432;8.680;2022-11-25T15:48:15;10.30;1.00
10417;DHT22;62605;49.432;8.680;2022-11-25T15:50:46;10.20;1.00
10417;DHT22;62605;49.432;8.680;2022-11-25T15:53:19;10.10;1.00
10417;DHT22;62605;49.432;8.680;2022-11-25T15:55:49;9.90;54.40
10417;DHT22;62605;49.432;8.680;2022-11-25T15:58:19;9.80;99.90
10417;DHT22;62605;49.432;8.680;2022-11-25T16:01:03;9.70;1.00
10417;DHT22;62605;49.432;8.680;2022-11-25T16:03:31;9.80;99.90
10417;DHT22;62605;49.432;8.680;2022-11-25T16:06:01;9.90;99.90
10417;DHT22;62605;49.432;8.680;2022-11-25T16:08:31;9.90;1.00
10417;DHT22;62605;49.432;8.680;2022-11-25T16:11:10;9.80;99.90
10417;DHT22;62605;49.432;8.680;2022-11-25T16:13:40;10.00;99.90
10417;DHT22;62605;49.432;8.680;2022-11-25T16:16:16;9.80;1.00
10417;DHT22;62605;49.432;8.680;2022-11-25T16:18:53;9.70;1.00
10417;DHT22;62605;49.432;8.680;2022-11-25T16:21:24;9.60;99.90
10417;DHT22;62605;49.432;8.680;2022-11-25T16:23:58;9.70;99.90
10417;DHT22;62605;49.432;8.680;2022-11-25T16:26:29;9.90;1.00
10417;DHT22;62605;49.432;8.680;2022-11-25T16:28:59;9.80;1.00
10417;DHT22;62605;49.432;8.680;2022-11-25T16:31:27;9.80;1.00